createdAt,value
2017-06-16T00:00:55.490Z,1.70
2017-06-16T00:03:23.086Z,1.70
2017-06-16T00:05:50.602Z,1.80
2017-06-16T00:08:18.157Z,1.53
2017-06-16T00:10:45.695Z,1.57
2017-06-16T00:13:13.248Z,1.57
2017-06-16T00:15:40.750Z,1.87
2017-06-16T00:18:08.306Z,1.20
2017-06-16T00:20:35.831Z,1.70
2017-06-16T00:23:03.371Z,1.87
2017-06-16T00:25:30.940Z,1.50
2017-06-16T00:27:58.451Z,1.93
2017-06-16T00:30:26.007Z,1.70
2017-06-16T00:32:53.581Z,1.80
2017-06-16T00:35:21.143Z,1.60
2017-06-16T00:37:48.673Z,1.87
2017-06-16T00:40:16.241Z,1.87
2017-06-16T00:42:43.755Z,2.00
2017-06-16T00:45:11.263Z,1.97
2017-06-16T00:47:38.819Z,1.47
2017-06-16T00:50:06.328Z,2.40
2017-06-16T00:52:33.887Z,2.00
2017-06-16T00:55:01.395Z,1.70
2017-06-16T00:57:28.979Z,2.37
2017-06-16T00:59:56.501Z,1.80
2017-06-16T01:02:24.098Z,1.87
2017-06-16T01:04:51.684Z,2.30
2017-06-16T01:07:19.211Z,2.60
2017-06-16T01:09:46.771Z,1.87
2017-06-16T01:12:14.301Z,1.97
2017-06-16T01:14:41.846Z,2.20
2017-06-16T01:17:09.349Z,2.30
2017-06-16T01:19:36.907Z,2.27
2017-06-16T01:22:04.412Z,1.90
2017-06-16T01:24:31.958Z,2.20
2017-06-16T01:26:59.507Z,2.50
2017-06-16T01:29:27.050Z,2.07
2017-06-16T01:31:54.645Z,1.70
2017-06-16T01:34:22.173Z,3.43
2017-06-16T01:36:49.699Z,2.10
2017-06-16T01:39:17.259Z,2.07
2017-06-16T01:41:44.791Z,2.47
2017-06-16T01:44:12.347Z,2.57
2017-06-16T01:46:39.851Z,2.17
2017-06-16T01:49:07.416Z,2.00
2017-06-16T01:51:34.930Z,2.37
2017-06-16T01:54:02.590Z,2.33
2017-06-16T01:56:30.118Z,2.30
2017-06-16T01:58:57.644Z,1.93
2017-06-16T02:01:25.215Z,3.03
2017-06-16T02:03:52.747Z,2.80
2017-06-16T02:06:20.328Z,2.80
2017-06-16T02:08:47.858Z,3.40
2017-06-16T02:11:15.377Z,2.20
2017-06-16T02:13:42.924Z,2.57
2017-06-16T02:16:10.423Z,3.03
2017-06-16T02:18:38.171Z,2.60
2017-06-16T02:21:05.677Z,3.33
2017-06-16T02:23:33.235Z,3.00
2017-06-16T02:26:00.762Z,3.07
2017-06-16T02:28:28.271Z,3.07
2017-06-16T02:30:55.830Z,3.40
2017-06-16T02:33:23.334Z,3.30
2017-06-16T02:35:50.879Z,3.53
2017-06-16T02:38:18.403Z,3.27
2017-06-16T02:40:45.971Z,2.30
2017-06-16T02:43:13.482Z,2.80
2017-06-16T02:45:41.003Z,2.90
2017-06-16T02:48:08.562Z,2.90
2017-06-16T02:50:36.085Z,2.60
2017-06-16T02:53:03.668Z,3.00
2017-06-16T02:55:31.207Z,3.43
2017-06-16T02:57:58.710Z,3.17
2017-06-16T03:00:26.290Z,2.90
2017-06-16T03:02:53.803Z,3.40
2017-06-16T03:05:21.435Z,2.57
2017-06-16T03:07:48.981Z,3.33
2017-06-16T03:10:16.629Z,3.50
2017-06-16T03:12:44.145Z,4.70
2017-06-16T03:15:11.656Z,3.80
2017-06-16T03:17:39.208Z,3.87
2017-06-16T03:20:06.731Z,3.73
2017-06-16T03:22:39.959Z,3.80
2017-06-16T03:25:07.467Z,3.57
2017-06-16T03:27:35.041Z,2.97
2017-06-16T03:30:02.551Z,3.50
2017-06-16T03:32:30.067Z,3.47
2017-06-16T03:34:57.679Z,3.23
2017-06-16T03:37:25.226Z,4.27
2017-06-16T03:39:52.791Z,3.70
2017-06-16T03:42:20.315Z,4.00
2017-06-16T03:44:47.890Z,4.13
2017-06-16T03:47:15.402Z,4.63
2017-06-16T03:49:42.979Z,3.90
2017-06-16T03:52:10.611Z,3.87
2017-06-16T03:54:38.136Z,4.20
2017-06-16T03:57:05.704Z,4.67
2017-06-16T03:59:33.273Z,3.80
2017-06-16T04:02:00.875Z,3.50
2017-06-16T04:04:28.418Z,4.27
2017-06-16T04:06:55.931Z,4.63
2017-06-16T04:09:23.608Z,4.90
2017-06-16T04:11:51.130Z,4.53
2017-06-16T04:14:18.695Z,4.10
2017-06-16T04:16:46.203Z,3.43
2017-06-16T04:19:13.876Z,3.93
2017-06-16T04:21:41.390Z,4.90
2017-06-16T04:24:08.915Z,3.73
2017-06-16T04:26:36.464Z,3.60
2017-06-16T04:29:03.980Z,3.67
2017-06-16T04:31:31.560Z,3.83
2017-06-16T04:33:59.085Z,4.20
2017-06-16T04:36:26.607Z,4.47
2017-06-16T04:38:54.180Z,3.60
2017-06-16T04:41:21.718Z,4.33
2017-06-16T04:43:49.293Z,5.57
2017-06-16T04:46:16.817Z,3.63
2017-06-16T04:48:44.351Z,3.43
2017-06-16T04:51:11.915Z,3.93
2017-06-16T04:53:39.419Z,4.23
2017-06-16T04:56:06.978Z,4.70
2017-06-16T04:58:34.491Z,4.10
2017-06-16T05:01:02.076Z,4.17
2017-06-16T05:03:29.658Z,4.07
2017-06-16T05:05:57.159Z,4.27
2017-06-16T05:08:24.741Z,3.57
2017-06-16T05:10:52.268Z,5.00
2017-06-16T05:13:19.864Z,10.10
2017-06-16T05:15:47.397Z,4.70
2017-06-16T05:18:14.909Z,4.33
2017-06-16T05:20:42.454Z,4.60
2017-06-16T05:23:25.663Z,4.57
2017-06-16T05:25:53.220Z,5.90
2017-06-16T05:28:20.727Z,4.60
2017-06-16T05:30:48.277Z,4.67
2017-06-16T05:33:15.807Z,4.70
2017-06-16T05:35:43.355Z,4.70
2017-06-16T05:38:10.883Z,5.03
2017-06-16T05:40:38.456Z,4.90
2017-06-16T05:43:05.964Z,4.50
2017-06-16T05:45:33.484Z,3.93
2017-06-16T05:48:01.049Z,4.57
2017-06-16T05:50:28.560Z,5.23
2017-06-16T05:52:56.119Z,4.80
2017-06-16T05:55:23.731Z,5.20
2017-06-16T05:57:51.358Z,4.53
2017-06-16T06:00:18.869Z,5.20
2017-06-16T06:02:46.437Z,4.37
2017-06-16T06:05:14.004Z,4.93
2017-06-16T06:07:41.563Z,6.50
2017-06-16T06:10:09.285Z,5.13
2017-06-16T06:12:36.814Z,5.27
2017-06-16T06:15:04.407Z,5.50
2017-06-16T06:17:31.931Z,5.00
2017-06-16T06:19:59.491Z,5.03
2017-06-16T06:22:27.080Z,4.87
2017-06-16T06:24:54.706Z,5.30
2017-06-16T06:27:22.264Z,4.67
2017-06-16T06:29:49.871Z,4.40
2017-06-16T06:32:17.618Z,5.10
2017-06-16T06:34:45.122Z,4.93
2017-06-16T06:37:12.655Z,5.13
2017-06-16T06:39:40.214Z,5.20
2017-06-16T06:42:07.791Z,4.80
2017-06-16T06:44:35.377Z,5.30
2017-06-16T06:47:02.934Z,5.03
2017-06-16T06:49:30.447Z,4.83
2017-06-16T06:51:58.047Z,4.47
2017-06-16T06:54:25.573Z,5.40
2017-06-16T06:56:53.123Z,3.77
2017-06-16T06:59:20.679Z,3.90
2017-06-16T07:01:48.235Z,4.50
2017-06-16T07:04:15.754Z,4.57
2017-06-16T07:06:43.273Z,4.20
2017-06-16T07:09:10.828Z,4.30
2017-06-16T07:11:38.356Z,4.43
2017-06-16T07:14:05.903Z,4.07
2017-06-16T07:16:33.420Z,4.13
2017-06-16T07:19:01.034Z,3.47
2017-06-16T07:21:28.663Z,3.80
2017-06-16T07:23:56.236Z,4.20
2017-06-16T07:26:23.793Z,4.83
2017-06-16T07:28:51.319Z,4.30
2017-06-16T07:31:18.872Z,3.87
2017-06-16T07:33:46.383Z,3.90
2017-06-16T07:36:13.935Z,4.50
2017-06-16T07:38:41.431Z,3.80
2017-06-16T07:41:09.011Z,3.60
2017-06-16T07:43:36.519Z,3.97
2017-06-16T07:46:04.984Z,4.20
2017-06-16T07:48:32.542Z,4.63
2017-06-16T07:51:00.076Z,5.50
2017-06-16T07:53:27.651Z,5.00
2017-06-16T07:55:55.170Z,4.00
2017-06-16T07:58:22.906Z,4.53
2017-06-16T08:00:50.582Z,6.30
2017-06-16T08:03:18.121Z,4.47
2017-06-16T08:05:45.693Z,7.13
2017-06-16T08:08:13.281Z,4.13
2017-06-16T08:10:40.842Z,4.80
2017-06-16T08:13:08.367Z,5.10
2017-06-16T08:15:35.923Z,3.83
2017-06-16T08:18:03.527Z,4.23
2017-06-16T08:20:31.295Z,3.43
2017-06-16T08:22:58.814Z,4.13
2017-06-16T08:25:26.334Z,4.10
2017-06-16T08:27:53.939Z,3.47
2017-06-16T08:30:21.502Z,3.73
2017-06-16T08:32:49.183Z,4.30
2017-06-16T08:35:16.722Z,2.60
2017-06-16T08:37:44.415Z,3.70
2017-06-16T08:40:12.047Z,3.90
2017-06-16T08:42:39.646Z,4.03
2017-06-16T08:45:08.638Z,5.10
2017-06-16T08:47:36.191Z,4.60
2017-06-16T08:50:03.792Z,5.80
2017-06-16T08:52:31.322Z,4.55
2017-06-16T08:54:59.210Z,5.40
2017-06-16T08:57:26.814Z,4.32
2017-06-16T08:59:54.332Z,4.20
2017-06-16T09:02:21.893Z,4.67
2017-06-16T09:04:49.410Z,3.80
2017-06-16T09:07:17.048Z,3.93
2017-06-16T09:09:44.558Z,4.07
2017-06-16T09:12:12.124Z,4.23
2017-06-16T09:14:39.632Z,4.90
2017-06-16T09:17:07.141Z,4.27
2017-06-16T09:19:34.687Z,5.30
2017-06-16T09:22:02.207Z,5.17
2017-06-16T09:24:29.759Z,3.30
2017-06-16T09:26:57.286Z,4.60
2017-06-16T09:29:24.851Z,2.50
2017-06-16T09:31:52.372Z,3.20
2017-06-16T09:34:19.964Z,3.23
2017-06-16T09:36:47.507Z,2.90
2017-06-16T09:39:15.056Z,2.47
2017-06-16T09:41:42.631Z,3.40
2017-06-16T09:44:10.131Z,3.03
2017-06-16T09:46:37.687Z,3.27
2017-06-16T09:49:05.236Z,2.50
2017-06-16T09:51:32.801Z,3.47
2017-06-16T09:54:00.483Z,2.87
2017-06-16T09:56:28.002Z,2.67
2017-06-16T09:58:55.584Z,2.20
2017-06-16T10:01:23.147Z,3.53
2017-06-16T10:03:50.655Z,3.60
2017-06-16T10:06:18.264Z,2.57
2017-06-16T10:08:45.783Z,2.70
2017-06-16T10:11:13.326Z,2.40
2017-06-16T10:13:40.922Z,2.87
2017-06-16T10:16:08.430Z,2.97
2017-06-16T10:18:35.947Z,1.97
2017-06-16T10:21:03.534Z,3.10
2017-06-16T10:23:31.058Z,2.40
2017-06-16T10:25:58.697Z,2.63
2017-06-16T10:28:26.225Z,4.30
2017-06-16T10:30:53.814Z,2.90
2017-06-16T10:33:21.325Z,1.90
2017-06-16T10:35:48.834Z,3.33
2017-06-16T10:38:16.383Z,2.60
2017-06-16T10:40:43.910Z,2.50
2017-06-16T10:43:11.461Z,2.73
2017-06-16T10:45:39.034Z,2.93
2017-06-16T10:48:06.627Z,2.90
2017-06-16T10:50:34.195Z,3.00
2017-06-16T10:53:01.702Z,3.10
2017-06-16T10:55:29.411Z,3.10
2017-06-16T10:57:56.935Z,3.90
2017-06-16T11:00:24.551Z,3.33
2017-06-16T11:02:52.079Z,3.33
2017-06-16T11:05:19.651Z,2.90
2017-06-16T11:07:47.159Z,4.50
2017-06-16T11:10:14.672Z,2.90
2017-06-16T11:12:42.259Z,2.70
2017-06-16T11:15:09.811Z,2.90
2017-06-16T11:17:37.466Z,2.53
2017-06-16T11:20:04.998Z,3.33
2017-06-16T11:22:32.625Z,3.03
2017-06-16T11:25:00.196Z,3.60
2017-06-16T11:27:27.711Z,2.40
2017-06-16T11:29:55.258Z,3.00
2017-06-16T11:32:22.767Z,2.60
2017-06-16T11:34:50.396Z,3.10
2017-06-16T11:37:18.162Z,2.70
2017-06-16T11:39:45.687Z,2.20
2017-06-16T11:42:13.252Z,2.03
2017-06-16T11:44:40.955Z,2.90
2017-06-16T11:47:08.658Z,2.60
2017-06-16T11:49:36.224Z,2.50
2017-06-16T11:52:03.768Z,4.53
2017-06-16T11:54:31.327Z,2.50
2017-06-16T11:56:58.881Z,3.07
2017-06-16T11:59:26.430Z,2.23
2017-06-16T12:01:53.983Z,2.33
2017-06-16T12:04:21.576Z,2.10
2017-06-16T12:06:49.154Z,2.40
2017-06-16T12:09:16.628Z,2.23
2017-06-16T12:11:44.172Z,1.80
2017-06-16T12:14:11.709Z,2.17
2017-06-16T12:16:39.454Z,1.83
2017-06-16T12:19:07.407Z,1.87
2017-06-16T12:21:34.919Z,2.07
2017-06-16T12:24:02.448Z,2.93
2017-06-16T12:26:30.053Z,2.10
2017-06-16T12:28:57.562Z,2.00
2017-06-16T12:31:25.128Z,2.97
2017-06-16T12:33:52.707Z,2.33
2017-06-16T12:36:20.289Z,2.47
2017-06-16T12:38:47.809Z,2.33
2017-06-16T12:41:15.318Z,3.53
2017-06-16T12:43:42.919Z,3.10
2017-06-16T12:46:10.439Z,2.83
2017-06-16T12:48:38.039Z,2.23
2017-06-16T12:51:05.632Z,2.50
2017-06-16T12:53:33.166Z,1.73
2017-06-16T12:56:00.726Z,2.17
2017-06-16T12:58:28.240Z,2.90
2017-06-16T13:00:55.803Z,2.47
2017-06-16T13:03:23.330Z,3.43
2017-06-16T13:05:50.938Z,2.40
2017-06-16T13:08:18.442Z,2.00
2017-06-16T13:10:46.031Z,2.13
2017-06-16T13:13:13.645Z,1.70
2017-06-16T13:15:41.209Z,2.47
2017-06-16T13:18:08.759Z,1.87
2017-06-16T13:20:36.340Z,2.43
2017-06-16T13:23:03.902Z,2.20
2017-06-16T13:25:31.426Z,2.20
2017-06-16T13:27:59.363Z,1.80
2017-06-16T13:30:26.873Z,2.23
2017-06-16T13:32:57.354Z,2.50
2017-06-16T13:35:24.913Z,1.70
2017-06-16T13:37:52.430Z,1.87
2017-06-16T13:40:19.983Z,2.50
2017-06-16T13:42:47.486Z,2.60
2017-06-16T13:45:15.076Z,2.20
2017-06-16T13:47:42.606Z,2.20
2017-06-16T13:50:10.127Z,2.17
2017-06-16T13:52:37.726Z,2.00
2017-06-16T13:55:05.243Z,1.83
2017-06-16T13:57:32.814Z,2.57
2017-06-16T14:00:00.339Z,1.70
2017-06-16T14:02:27.919Z,2.30
2017-06-16T14:04:55.440Z,1.60
2017-06-16T14:07:23.044Z,2.30
2017-06-16T14:09:50.639Z,1.80
2017-06-16T14:12:18.161Z,1.07
2017-06-16T14:14:45.715Z,0.93
2017-06-16T14:17:13.231Z,1.30
2017-06-16T14:19:40.984Z,1.40
2017-06-16T14:22:08.627Z,1.40
2017-06-16T14:24:36.199Z,1.23
2017-06-16T14:27:03.880Z,3.90
2017-06-16T14:29:31.380Z,1.50
2017-06-16T14:31:58.947Z,1.90
2017-06-16T14:34:26.539Z,1.57
2017-06-16T14:36:54.106Z,1.57
2017-06-16T14:39:21.636Z,1.77
2017-06-16T14:41:49.233Z,2.30
2017-06-16T14:44:16.751Z,1.67
2017-06-16T14:46:44.255Z,1.87
2017-06-16T14:49:11.836Z,1.90
2017-06-16T14:51:39.375Z,1.70
2017-06-16T14:54:06.925Z,1.73
2017-06-16T14:56:34.467Z,1.63
2017-06-16T14:59:02.068Z,2.07
2017-06-16T15:01:29.580Z,1.97
2017-06-16T15:03:57.123Z,1.43
2017-06-16T15:06:24.678Z,1.57
2017-06-16T15:08:52.242Z,2.43
2017-06-16T15:11:19.862Z,1.20
2017-06-16T15:13:48.218Z,2.10
2017-06-16T15:16:15.750Z,1.30
2017-06-16T15:18:43.295Z,1.70
2017-06-16T15:21:16.342Z,1.90
2017-06-16T15:23:45.932Z,1.93
2017-06-16T15:26:13.492Z,2.10
2017-06-16T15:28:41.035Z,2.23
2017-06-16T15:31:08.543Z,1.30
2017-06-16T15:33:36.102Z,1.57
2017-06-16T15:36:03.622Z,2.10
2017-06-16T15:38:31.183Z,1.87
2017-06-16T15:40:58.698Z,1.70
2017-06-16T15:43:26.229Z,1.83
2017-06-16T15:45:53.764Z,1.83
2017-06-16T15:48:21.299Z,2.10
2017-06-16T15:50:48.810Z,1.60
2017-06-16T15:53:16.426Z,1.73
2017-06-16T15:55:43.956Z,2.00
2017-06-16T15:58:11.527Z,2.37
2017-06-16T16:00:39.039Z,1.90
2017-06-16T16:03:06.550Z,2.13
2017-06-16T16:05:34.090Z,2.17
2017-06-16T16:08:01.595Z,2.77
2017-06-16T16:10:29.256Z,1.93
2017-06-16T16:12:56.748Z,1.80
2017-06-16T16:15:24.293Z,1.60
2017-06-16T16:17:51.794Z,1.80
2017-06-16T16:20:19.331Z,1.53
2017-06-16T16:22:46.848Z,1.70
2017-06-16T16:25:14.483Z,2.17
2017-06-16T16:27:42.017Z,1.90
2017-06-16T16:30:09.586Z,1.80
2017-06-16T16:32:37.135Z,2.57
2017-06-16T16:35:04.654Z,2.00
2017-06-16T16:37:32.196Z,2.20
2017-06-16T16:39:59.722Z,1.80
2017-06-16T16:42:27.306Z,1.53
2017-06-16T16:44:54.843Z,2.50
2017-06-16T16:47:22.351Z,2.67
2017-06-16T16:49:49.890Z,1.63
2017-06-16T16:52:17.491Z,2.30
2017-06-16T16:54:45.032Z,2.30
2017-06-16T16:57:12.536Z,2.00
2017-06-16T16:59:40.091Z,1.87
2017-06-16T17:02:07.603Z,1.50
2017-06-16T17:04:35.246Z,2.93
2017-06-16T17:07:02.758Z,3.40
2017-06-16T17:09:30.307Z,2.17
2017-06-16T17:11:57.872Z,2.63
2017-06-16T17:14:25.407Z,2.70
2017-06-16T17:16:53.019Z,2.30
2017-06-16T17:19:20.527Z,8.70
2017-06-16T17:21:48.155Z,3.40
2017-06-16T17:24:15.704Z,1.90
2017-06-16T17:26:43.261Z,2.60
2017-06-16T17:29:10.776Z,2.50
2017-06-16T17:31:38.307Z,3.33
2017-06-16T17:34:05.828Z,1.77
2017-06-16T17:36:33.377Z,2.20
2017-06-16T17:39:00.881Z,2.10
2017-06-16T17:41:28.448Z,2.17
2017-06-16T17:43:55.973Z,2.30
2017-06-16T17:46:23.531Z,2.50
2017-06-16T17:48:51.104Z,1.90
2017-06-16T17:51:18.658Z,1.83
2017-06-16T17:53:46.167Z,2.20
2017-06-16T17:56:13.730Z,3.67
2017-06-16T17:58:41.246Z,2.47
2017-06-16T18:01:08.789Z,1.97
2017-06-16T18:03:36.291Z,2.03
2017-06-16T18:06:03.875Z,1.83
2017-06-16T18:08:31.387Z,2.00
2017-06-16T18:10:58.994Z,1.67
2017-06-16T18:13:26.678Z,4.13
2017-06-16T18:15:54.237Z,6.40
2017-06-16T18:18:21.743Z,1.60
2017-06-16T18:20:49.323Z,1.80
2017-06-16T18:23:16.918Z,2.00
2017-06-16T18:25:44.606Z,2.50
2017-06-16T18:28:12.184Z,1.40
2017-06-16T18:30:39.724Z,1.90
2017-06-16T18:33:07.273Z,1.80
2017-06-16T18:35:34.848Z,2.33
2017-06-16T18:38:02.535Z,1.93
2017-06-16T18:40:30.055Z,3.10
2017-06-16T18:42:57.643Z,1.77
2017-06-16T18:45:25.165Z,2.63
2017-06-16T18:47:52.685Z,1.90
2017-06-16T18:50:20.216Z,1.93
2017-06-16T18:52:47.791Z,4.47
2017-06-16T18:55:15.339Z,2.20
2017-06-16T18:57:42.885Z,2.80
2017-06-16T19:00:10.468Z,3.40
2017-06-16T19:02:37.980Z,4.67
2017-06-16T19:05:05.492Z,1.70
2017-06-16T19:07:33.026Z,2.00
2017-06-16T19:10:00.552Z,2.50
2017-06-16T19:12:28.107Z,3.70
2017-06-16T19:14:55.619Z,3.60
2017-06-16T19:17:23.179Z,2.87
2017-06-16T19:19:50.688Z,1.70
2017-06-16T19:22:18.269Z,2.93
2017-06-16T19:24:45.839Z,2.43
2017-06-16T19:27:13.555Z,2.00
2017-06-16T19:29:41.072Z,2.00
2017-06-16T19:32:08.623Z,1.30
2017-06-16T19:34:36.189Z,2.10
2017-06-16T19:37:03.769Z,2.30
2017-06-16T19:39:31.379Z,1.50
2017-06-16T19:41:59.123Z,2.10
2017-06-16T19:44:26.646Z,1.83
2017-06-16T19:46:54.241Z,1.60
2017-06-16T19:49:21.760Z,1.97
2017-06-16T19:51:49.307Z,4.23
2017-06-16T19:54:16.880Z,3.00
2017-06-16T19:56:44.532Z,2.77
2017-06-16T19:59:12.154Z,2.60
2017-06-16T20:01:39.667Z,2.67
2017-06-16T20:04:07.179Z,2.77
2017-06-16T20:06:34.744Z,3.27
2017-06-16T20:09:02.279Z,1.77
2017-06-16T20:11:29.855Z,1.97
2017-06-16T20:13:57.385Z,2.13
2017-06-16T20:16:24.914Z,3.20
2017-06-16T20:18:52.617Z,2.33
2017-06-16T20:21:20.155Z,2.33
2017-06-16T20:23:47.702Z,2.63
2017-06-16T20:26:15.338Z,2.43
2017-06-16T20:28:42.952Z,1.90
2017-06-16T20:31:10.554Z,2.57
2017-06-16T20:33:38.182Z,2.67
2017-06-16T20:36:05.766Z,2.33
2017-06-16T20:38:33.282Z,2.63
2017-06-16T20:41:01.175Z,2.77
2017-06-16T20:43:28.740Z,1.83
2017-06-16T20:45:56.355Z,2.23
2017-06-16T20:48:23.932Z,1.90
2017-06-16T20:50:51.449Z,1.87
2017-06-16T20:53:19.014Z,5.23
2017-06-16T20:55:46.549Z,3.57
2017-06-16T20:58:14.156Z,2.00
2017-06-16T21:00:41.698Z,1.83
2017-06-16T21:03:09.250Z,3.73
2017-06-16T21:05:36.871Z,2.50
2017-06-16T21:08:04.397Z,2.43
2017-06-16T21:10:31.966Z,5.70
2017-06-16T21:12:59.480Z,2.03
2017-06-16T21:15:27.056Z,2.10
2017-06-16T21:17:54.566Z,2.20
2017-06-16T21:20:22.187Z,1.60
2017-06-16T21:22:49.699Z,1.50
2017-06-16T21:25:17.219Z,1.63
2017-06-16T21:27:44.786Z,2.90
2017-06-16T21:30:12.317Z,2.07
2017-06-16T21:32:39.879Z,4.20
2017-06-16T21:35:07.389Z,2.50
2017-06-16T21:37:34.954Z,1.80
2017-06-16T21:40:02.485Z,2.53
2017-06-16T21:42:30.004Z,2.17
2017-06-16T21:44:57.610Z,2.00
2017-06-16T21:47:25.240Z,1.47
2017-06-16T21:49:52.796Z,1.83
2017-06-16T21:52:20.319Z,1.87
2017-06-16T21:54:48.012Z,2.60
2017-06-16T21:57:15.523Z,1.77
2017-06-16T21:59:43.036Z,2.00
2017-06-16T22:02:10.574Z,3.40
2017-06-16T22:04:38.091Z,2.63
2017-06-16T22:07:05.819Z,2.07
2017-06-16T22:09:33.318Z,2.00
2017-06-16T22:12:00.836Z,1.77
2017-06-16T22:14:28.405Z,3.23
2017-06-16T22:16:55.976Z,1.80
2017-06-16T22:19:23.539Z,2.00
2017-06-16T22:21:51.079Z,1.80
2017-06-16T22:24:18.658Z,1.80
2017-06-16T22:26:46.182Z,1.80
2017-06-16T22:29:13.849Z,2.10
2017-06-16T22:31:41.411Z,2.10
2017-06-16T22:34:08.914Z,1.80
2017-06-16T22:36:36.509Z,2.30
2017-06-16T22:39:04.095Z,1.90
2017-06-16T22:41:31.672Z,1.90
2017-06-16T22:43:59.277Z,2.07
2017-06-16T22:46:26.786Z,2.30
2017-06-16T22:48:54.316Z,2.03
2017-06-16T22:51:21.879Z,1.63
2017-06-16T22:53:49.382Z,2.13
2017-06-16T22:56:16.891Z,2.13
2017-06-16T22:58:44.509Z,2.00
2017-06-16T23:01:12.037Z,1.73
2017-06-16T23:03:39.618Z,2.30
2017-06-16T23:06:07.139Z,2.10
2017-06-16T23:08:34.652Z,1.90
2017-06-16T23:11:02.210Z,2.60
2017-06-16T23:13:29.746Z,2.33
2017-06-16T23:15:57.617Z,2.27
2017-06-16T23:18:25.139Z,2.33
2017-06-16T23:20:52.667Z,2.23
2017-06-16T23:23:20.220Z,2.17
2017-06-16T23:25:47.749Z,2.33
2017-06-16T23:28:15.320Z,2.47
2017-06-16T23:30:42.844Z,3.00
2017-06-16T23:33:10.411Z,2.33
2017-06-16T23:35:37.946Z,2.30
2017-06-16T23:38:05.511Z,2.53
2017-06-16T23:40:33.053Z,2.73
2017-06-16T23:43:00.662Z,2.40
2017-06-16T23:45:28.223Z,2.13
2017-06-16T23:47:55.735Z,1.87
2017-06-16T23:50:23.287Z,1.97
2017-06-16T23:52:50.803Z,2.57
2017-06-16T23:55:18.511Z,2.67
2017-06-16T23:57:46.028Z,2.10
